Time;durP1;ratioP1;P1;durP2;ratioP2;P2;SDS_P1;SDS_P2;PMS_P1;PMS_P2;Temp;Humidity;BMP_temperature;BMP_pressure;BME280_temperature;BME280_humidity;BME280_pressure;Samples;Min_cycle;Max_cycle;Signal;HPM_P1;HPM_P2
2023/03/06 00:01:56;;;;;;;23.40;13.40;;;;;;;;;;5045417;28;22038;-77
2023/03/06 00:04:21;;;;;;;24.57;13.30;;;;;;;;;;5043971;28;20048;-77
2023/03/06 00:06:47;;;;;;;22.43;12.83;;;;;;;;;;5046493;28;20017;-77
2023/03/06 00:09:13;;;;;;;19.50;13.07;;;;;;;;;;5047641;28;20045;-77
2023/03/06 00:11:39;;;;;;;22.83;13.33;;;;;;;;;;5051338;28;20025;-77
2023/03/06 00:14:05;;;;;;;20.23;12.97;;;;;;;;;;5045534;28;20302;-77
2023/03/06 00:16:34;;;;;;;27.53;15.17;;;;;;;;;;5042194;28;20067;-76
2023/03/06 00:18:59;;;;;;;22.83;14.30;;;;;;;;;;5043121;28;20025;-77
2023/03/06 00:21:25;;;;;;;21.60;12.53;;;;;;;;;;5045153;28;20082;-76
2023/03/06 00:23:51;;;;;;;22.10;13.83;;;;;;;;;;5062543;28;20024;-77
2023/03/06 00:26:20;;;;;;;22.77;13.77;;;;;;;;;;5061343;28;20635;-77
2023/03/06 00:28:46;;;;;;;23.17;13.90;;;;;;;;;;5042124;28;20028;-76
2023/03/06 00:31:12;;;;;;;24.47;13.97;;;;;;;;;;5041855;28;20060;-77
2023/03/06 00:33:38;;;;;;;23.63;14.50;;;;;;;;;;5040625;28;20033;-77
2023/03/06 00:36:07;;;;;;;23.83;13.70;;;;;;;;;;5051216;28;20036;-77
2023/03/06 00:38:34;;;;;;;23.53;13.20;;;;;;;;;;5045334;28;20071;-77
2023/03/06 00:41:06;;;;;;;24.87;14.40;;;;;;;;;;5040783;28;20075;-76
2023/03/06 00:43:32;;;;;;;23.37;14.30;;;;;;;;;;5058142;28;20290;-76
2023/03/06 00:45:57;;;;;;;22.03;14.23;;;;;;;;;;5059518;28;20029;-77
2023/03/06 00:48:23;;;;;;;23.23;13.57;;;;;;;;;;5046170;28;20071;-76
2023/03/06 00:50:52;;;;;;;24.47;14.47;;;;;;;;;;5042708;28;20432;-76
2023/03/06 00:53:18;;;;;;;22.50;13.17;;;;;;;;;;5046169;28;20381;-77
2023/03/06 00:55:44;;;;;;;24.80;15.23;;;;;;;;;;5044790;28;20036;-77
2023/03/06 00:58:11;;;;;;;24.40;14.70;;;;;;;;;;5057520;28;20036;-77
2023/03/06 01:00:37;;;;;;;27.80;15.73;;;;;;;;;;5051002;28;20298;-77
2023/03/06 01:03:03;;;;;;;27.20;16.70;;;;;;;;;;5052288;28;20274;-76
2023/03/06 01:05:29;;;;;;;26.70;15.50;;;;;;;;;;5049236;28;20110;-76
2023/03/06 01:07:55;;;;;;;25.60;16.37;;;;;;;;;;5048138;28;20602;-77
2023/03/06 01:10:21;;;;;;;31.10;16.47;;;;;;;;;;5048172;28;20275;-77
2023/03/06 01:12:50;;;;;;;23.83;15.37;;;;;;;;;;5050036;28;20028;-77
2023/03/06 01:15:16;;;;;;;29.00;16.80;;;;;;;;;;5049457;28;20283;-77
2023/03/06 01:17:42;;;;;;;30.87;16.57;;;;;;;;;;5046579;28;20341;-76
2023/03/06 01:20:08;;;;;;;32.03;18.10;;;;;;;;;;5055874;28;20053;-76
2023/03/06 01:22:34;;;;;;;30.20;17.73;;;;;;;;;;5064667;28;20017;-76
2023/03/06 01:25:00;;;;;;;28.53;16.83;;;;;;;;;;5047856;28;20336;-76
2023/03/06 01:27:26;;;;;;;30.10;17.10;;;;;;;;;;5047798;28;20346;-76
2023/03/06 01:29:52;;;;;;;33.90;18.10;;;;;;;;;;5058616;28;20097;-75
2023/03/06 01:32:18;;;;;;;31.47;17.90;;;;;;;;;;5048253;28;20043;-76
2023/03/06 01:34:44;;;;;;;31.67;18.07;;;;;;;;;;5051082;28;20035;-76
2023/03/06 01:37:12;;;;;;;35.47;20.53;;;;;;;;;;5068084;28;20286;-76
2023/03/06 01:39:38;;;;;;;31.27;17.93;;;;;;;;;;5052391;28;20127;-76
2023/03/06 01:42:04;;;;;;;37.60;20.03;;;;;;;;;;5048161;28;20367;-77
2023/03/06 01:44:30;;;;;;;33.50;20.20;;;;;;;;;;5056898;28;20439;-77
2023/03/06 01:47:01;;;;;;;33.47;19.67;;;;;;;;;;5053479;28;20325;-76
2023/03/06 01:49:33;;;;;;;33.27;19.50;;;;;;;;;;5066534;28;20337;-77
2023/03/06 01:52:05;;;;;;;35.17;20.17;;;;;;;;;;5049302;28;20300;-76
2023/03/06 01:54:34;;;;;;;37.72;19.85;;;;;;;;;;5048746;28;20045;-77
2023/03/06 01:57:03;;;;;;;35.67;19.83;;;;;;;;;;5048138;28;20025;-77
2023/03/06 01:59:29;;;;;;;35.07;20.90;;;;;;;;;;5052136;28;20287;-77
2023/03/06 02:01:57;;;;;;;42.23;22.40;;;;;;;;;;5051509;28;20727;-76
2023/03/06 02:04:23;;;;;;;37.27;21.97;;;;;;;;;;5066325;28;20283;-76
2023/03/06 02:06:50;;;;;;;33.47;20.37;;;;;;;;;;5046156;28;20457;-76
2023/03/06 02:09:16;;;;;;;38.97;22.40;;;;;;;;;;5061282;28;20362;-77
2023/03/06 02:11:42;;;;;;;43.40;24.33;;;;;;;;;;5046649;28;21023;-76
2023/03/06 02:14:09;;;;;;;42.67;22.97;;;;;;;;;;5061357;28;20264;-76
2023/03/06 02:16:34;;;;;;;46.10;24.87;;;;;;;;;;5058766;28;21073;-77
2023/03/06 02:19:01;;;;;;;42.67;22.90;;;;;;;;;;5060993;28;20310;-77
2023/03/06 02:21:30;;;;;;;44.33;23.73;;;;;;;;;;5043807;28;20032;-77
2023/03/06 02:23:56;;;;;;;44.10;26.70;;;;;;;;;;5054955;28;20263;-77
2023/03/06 02:26:23;;;;;;;48.20;26.90;;;;;;;;;;5064055;28;20742;-77
2023/03/06 02:28:49;;;;;;;46.70;25.50;;;;;;;;;;5046211;28;20444;-76
2023/03/06 02:31:20;;;;;;;53.27;28.27;;;;;;;;;;5043781;28;20665;-77
2023/03/06 02:33:46;;;;;;;52.23;27.80;;;;;;;;;;5053070;28;20275;-76
2023/03/06 02:36:14;;;;;;;57.77;28.97;;;;;;;;;;5062001;28;20342;-77
2023/03/06 02:38:48;;;;;;;51.10;28.00;;;;;;;;;;5064644;28;20548;-76
2023/03/06 02:41:14;;;;;;;54.90;28.87;;;;;;;;;;5059631;28;20303;-77
2023/03/06 02:43:41;;;;;;;50.93;28.87;;;;;;;;;;5051811;28;20272;-77
2023/03/06 02:46:07;;;;;;;51.87;28.73;;;;;;;;;;5056707;28;20582;-76
2023/03/06 02:48:35;;;;;;;53.63;28.80;;;;;;;;;;5047605;28;20355;-77
2023/03/06 02:51:03;;;;;;;51.77;28.33;;;;;;;;;;5048126;28;20267;-77
2023/03/06 02:53:29;;;;;;;53.73;27.80;;;;;;;;;;5058861;28;20613;-76
2023/03/06 02:55:55;;;;;;;52.17;26.33;;;;;;;;;;5058311;28;20338;-77
2023/03/06 02:58:21;;;;;;;52.97;28.80;;;;;;;;;;5048477;28;20025;-77
2023/03/06 03:00:48;;;;;;;53.60;28.80;;;;;;;;;;5048747;28;20441;-77
2023/03/06 03:03:14;;;;;;;53.83;28.60;;;;;;;;;;5057619;28;20021;-76
2023/03/06 03:05:40;;;;;;;49.50;27.23;;;;;;;;;;5040351;28;20302;-76
2023/03/06 03:08:06;;;;;;;56.53;29.47;;;;;;;;;;5064791;28;20291;-77
2023/03/06 03:10:32;;;;;;;56.03;28.93;;;;;;;;;;5047437;28;20025;-77
2023/03/06 03:12:59;;;;;;;50.33;27.80;;;;;;;;;;5042559;28;20029;-76
2023/03/06 03:15:25;;;;;;;52.23;28.57;;;;;;;;;;5058839;28;20277;-77
2023/03/06 03:17:51;;;;;;;57.67;29.70;;;;;;;;;;5044039;28;20625;-76
2023/03/06 03:20:18;;;;;;;57.43;29.20;;;;;;;;;;5058387;28;20369;-76
2023/03/06 03:22:48;;;;;;;59.27;29.47;;;;;;;;;;5040440;28;20025;-76
2023/03/06 03:25:15;;;;;;;59.97;30.23;;;;;;;;;;5049715;28;20263;-76
2023/03/06 03:27:40;;;;;;;53.37;28.27;;;;;;;;;;5057923;28;20299;-77
2023/03/06 03:30:07;;;;;;;58.73;30.60;;;;;;;;;;5050091;28;20097;-76
2023/03/06 03:32:33;;;;;;;61.30;31.73;;;;;;;;;;5058194;28;20123;-76
2023/03/06 03:34:59;;;;;;;59.60;31.93;;;;;;;;;;5041315;28;20303;-77
2023/03/06 03:37:25;;;;;;;54.57;31.17;;;;;;;;;;5053152;28;20039;-76
2023/03/06 03:39:51;;;;;;;58.53;29.63;;;;;;;;;;5044201;28;20671;-76
2023/03/06 03:42:17;;;;;;;62.70;32.10;;;;;;;;;;5054814;28;20025;-77
2023/03/06 03:44:43;;;;;;;59.60;31.23;;;;;;;;;;5046632;28;20507;-77
2023/03/06 03:47:09;;;;;;;55.43;28.70;;;;;;;;;;5055322;28;20024;-76
2023/03/06 03:49:35;;;;;;;60.10;31.10;;;;;;;;;;5053773;28;20329;-76
2023/03/06 03:52:01;;;;;;;59.30;29.93;;;;;;;;;;5048809;28;20107;-76
2023/03/06 03:54:27;;;;;;;58.40;30.07;;;;;;;;;;5054459;28;20029;-76
2023/03/06 03:56:53;;;;;;;58.57;31.20;;;;;;;;;;5065321;28;20024;-76
2023/03/06 03:59:19;;;;;;;58.57;31.37;;;;;;;;;;5042174;28;20330;-76
2023/03/06 04:01:45;;;;;;;63.93;31.33;;;;;;;;;;5054730;28;20033;-76
2023/03/06 04:04:12;;;;;;;58.57;30.90;;;;;;;;;;5067365;28;20265;-77
2023/03/06 04:06:38;;;;;;;61.07;31.30;;;;;;;;;;5054151;28;20046;-77
2023/03/06 04:09:04;;;;;;;57.00;30.77;;;;;;;;;;5057634;28;20401;-76
2023/03/06 04:11:30;;;;;;;60.30;29.87;;;;;;;;;;5055923;28;20029;-77
2023/03/06 04:13:56;;;;;;;55.33;27.53;;;;;;;;;;5053378;28;20294;-76
2023/03/06 04:16:24;;;;;;;57.97;30.37;;;;;;;;;;5050082;28;20263;-76
2023/03/06 04:18:50;;;;;;;54.13;28.43;;;;;;;;;;5058629;28;20070;-75
2023/03/06 04:21:16;;;;;;;56.13;27.70;;;;;;;;;;5058739;28;20416;-76
2023/03/06 04:23:42;;;;;;;51.77;27.13;;;;;;;;;;5058768;28;20155;-76
2023/03/06 04:26:09;;;;;;;55.97;29.30;;;;;;;;;;5061211;28;20024;-76
2023/03/06 04:28:37;;;;;;;54.60;29.00;;;;;;;;;;5046028;28;20433;-75
2023/03/06 04:31:03;;;;;;;63.03;28.37;;;;;;;;;;5060217;28;20287;-77
2023/03/06 04:33:29;;;;;;;54.83;27.63;;;;;;;;;;5059885;28;20292;-76
2023/03/06 04:35:55;;;;;;;53.57;28.23;;;;;;;;;;5051015;28;20036;-76
2023/03/06 04:38:21;;;;;;;56.63;29.83;;;;;;;;;;5058713;28;20044;-75
2023/03/06 04:40:48;;;;;;;54.10;26.53;;;;;;;;;;5040067;28;20611;-76
2023/03/06 04:43:14;;;;;;;54.97;29.27;;;;;;;;;;5042116;28;20590;-76
2023/03/06 04:45:40;;;;;;;58.43;30.23;;;;;;;;;;5042441;28;20329;-76
2023/03/06 04:48:06;;;;;;;55.50;28.77;;;;;;;;;;5040314;28;20274;-76
2023/03/06 04:50:33;;;;;;;61.37;30.50;;;;;;;;;;5057478;28;20036;-76
2023/03/06 04:53:00;;;;;;;58.30;29.33;;;;;;;;;;5043458;28;21087;-76
2023/03/06 04:55:26;;;;;;;61.10;29.43;;;;;;;;;;5051745;28;20278;-76
2023/03/06 04:57:52;;;;;;;56.03;29.97;;;;;;;;;;5040131;28;20345;-76
2023/03/06 05:00:20;;;;;;;61.40;30.53;;;;;;;;;;5043445;28;20352;-76
2023/03/06 05:02:46;;;;;;;63.03;29.93;;;;;;;;;;5059952;28;20267;-76
2023/03/06 05:05:12;;;;;;;57.53;29.53;;;;;;;;;;5042615;28;20337;-76
2023/03/06 05:07:39;;;;;;;56.03;30.67;;;;;;;;;;5044654;28;20297;-76
2023/03/06 05:10:05;;;;;;;66.23;30.47;;;;;;;;;;5057404;28;20401;-76
2023/03/06 05:12:34;;;;;;;63.63;31.87;;;;;;;;;;5046560;28;20039;-77
2023/03/06 05:15:00;;;;;;;56.83;30.50;;;;;;;;;;5057760;28;21872;-76
2023/03/06 05:17:26;;;;;;;54.83;31.07;;;;;;;;;;5057356;28;20029;-76
2023/03/06 05:19:52;;;;;;;58.77;32.23;;;;;;;;;;5042334;28;20137;-76
2023/03/06 05:22:18;;;;;;;61.63;32.17;;;;;;;;;;5060937;28;20028;-75
2023/03/06 05:24:44;;;;;;;60.33;31.70;;;;;;;;;;5043970;28;20310;-76
2023/03/06 05:27:10;;;;;;;60.57;31.67;;;;;;;;;;5042710;28;20315;-76
2023/03/06 05:29:36;;;;;;;64.50;32.10;;;;;;;;;;5042088;28;20029;-75
2023/03/06 05:32:02;;;;;;;62.63;31.77;;;;;;;;;;5043575;28;20335;-77
2023/03/06 05:34:28;;;;;;;64.20;32.43;;;;;;;;;;5060858;28;20046;-76
2023/03/06 05:36:54;;;;;;;66.43;31.53;;;;;;;;;;5059276;28;21169;-76
2023/03/06 05:39:20;;;;;;;60.43;32.30;;;;;;;;;;5061351;28;20041;-76
2023/03/06 05:41:46;;;;;;;66.03;34.17;;;;;;;;;;5044412;28;20108;-76
2023/03/06 05:44:14;;;;;;;63.13;31.53;;;;;;;;;;5050136;28;20405;-76
2023/03/06 05:46:40;;;;;;;63.40;32.43;;;;;;;;;;5045345;28;20021;-75
2023/03/06 05:49:06;;;;;;;61.80;31.30;;;;;;;;;;5048163;28;20286;-75
2023/03/06 05:51:32;;;;;;;60.20;31.17;;;;;;;;;;5064742;28;20029;-76
2023/03/06 05:53:58;;;;;;;56.67;29.57;;;;;;;;;;5048957;28;20329;-76
2023/03/06 05:56:24;;;;;;;52.63;29.57;;;;;;;;;;5060871;28;20036;-76
2023/03/06 05:58:53;;;;;;;53.93;28.97;;;;;;;;;;5062237;28;20919;-76
2023/03/06 06:01:21;;;;;;;59.00;30.47;;;;;;;;;;5061288;28;20033;-75
2023/03/06 06:03:48;;;;;;;52.10;28.37;;;;;;;;;;5044511;28;20288;-76
2023/03/06 06:06:14;;;;;;;55.53;28.70;;;;;;;;;;5061223;28;20364;-76
2023/03/06 06:08:41;;;;;;;54.30;28.13;;;;;;;;;;5052802;28;20275;-76
2023/03/06 06:11:08;;;;;;;53.33;28.90;;;;;;;;;;5044052;28;20287;-76
2023/03/06 06:13:35;;;;;;;53.63;27.73;;;;;;;;;;5057294;28;20313;-76
2023/03/06 06:16:05;;;;;;;58.13;30.50;;;;;;;;;;5046065;28;20287;-76
2023/03/06 06:18:31;;;;;;;49.83;27.20;;;;;;;;;;5060395;28;20720;-76
2023/03/06 06:21:03;;;;;;;55.97;28.97;;;;;;;;;;5057532;28;20287;-76
2023/03/06 06:23:29;;;;;;;55.10;28.77;;;;;;;;;;5043700;28;20533;-76
2023/03/06 06:25:54;;;;;;;57.10;29.90;;;;;;;;;;5060269;28;20318;-76
2023/03/06 06:28:20;;;;;;;54.90;28.23;;;;;;;;;;5059334;28;20499;-76
2023/03/06 06:30:46;;;;;;;54.83;27.23;;;;;;;;;;5059626;28;20135;-75
2023/03/06 06:33:12;;;;;;;64.43;31.60;;;;;;;;;;5059816;28;20066;-76
2023/03/06 06:35:38;;;;;;;55.17;29.50;;;;;;;;;;5059103;28;20875;-76
2023/03/06 06:38:04;;;;;;;58.53;29.37;;;;;;;;;;5044135;28;20113;-76
2023/03/06 06:40:30;;;;;;;55.40;28.20;;;;;;;;;;5058422;28;20437;-75
2023/03/06 06:42:56;;;;;;;61.47;29.33;;;;;;;;;;5042373;28;20033;-76
2023/03/06 06:45:22;;;;;;;63.30;29.80;;;;;;;;;;5042610;28;20033;-76
2023/03/06 06:47:49;;;;;;;48.17;25.90;;;;;;;;;;5059284;28;20048;-76
2023/03/06 06:50:15;;;;;;;55.20;28.13;;;;;;;;;;5044474;28;20024;-76
2023/03/06 06:52:41;;;;;;;56.33;28.70;;;;;;;;;;5060153;28;20291;-76
2023/03/06 06:55:07;;;;;;;52.80;28.20;;;;;;;;;;5043180;28;20114;-76
2023/03/06 06:57:33;;;;;;;53.70;26.40;;;;;;;;;;5041573;28;20037;-75
2023/03/06 06:59:59;;;;;;;53.23;27.53;;;;;;;;;;5042961;28;21035;-76
2023/03/06 07:02:25;;;;;;;55.93;26.93;;;;;;;;;;5045970;28;20029;-76
2023/03/06 07:04:51;;;;;;;48.47;26.80;;;;;;;;;;5057711;28;20036;-75
2023/03/06 07:07:17;;;;;;;49.50;25.13;;;;;;;;;;5059423;28;20179;-76
2023/03/06 07:09:43;;;;;;;51.27;25.93;;;;;;;;;;5045774;28;20490;-76
2023/03/06 07:12:09;;;;;;;52.00;27.70;;;;;;;;;;5050985;28;20043;-76
2023/03/06 07:14:40;;;;;;;53.07;26.70;;;;;;;;;;5060679;28;20311;-76
2023/03/06 07:17:06;;;;;;;47.70;25.30;;;;;;;;;;5057585;28;20029;-76
2023/03/06 07:19:32;;;;;;;50.50;27.03;;;;;;;;;;5061795;28;20387;-76
2023/03/06 07:22:01;;;;;;;46.57;24.90;;;;;;;;;;5057624;28;20270;-75
2023/03/06 07:24:27;;;;;;;48.27;24.17;;;;;;;;;;5058286;28;20035;-76
2023/03/06 07:26:53;;;;;;;45.20;24.37;;;;;;;;;;5057160;28;21170;-76
2023/03/06 07:29:19;;;;;;;45.53;24.37;;;;;;;;;;5057283;28;20290;-76
2023/03/06 07:31:45;;;;;;;45.07;24.20;;;;;;;;;;5046127;28;20029;-76
2023/03/06 07:34:12;;;;;;;48.20;23.70;;;;;;;;;;5057658;28;20294;-76
2023/03/06 07:36:39;;;;;;;45.83;25.43;;;;;;;;;;5059280;28;20058;-76
2023/03/06 07:39:08;;;;;;;51.20;26.50;;;;;;;;;;5054144;28;20037;-76
2023/03/06 07:41:34;;;;;;;47.20;24.47;;;;;;;;;;5058886;28;20456;-76
2023/03/06 07:43:59;;;;;;;47.90;24.13;;;;;;;;;;5058718;28;20021;-76
2023/03/06 07:46:26;;;;;;;52.67;26.37;;;;;;;;;;5056808;28;21717;-76
2023/03/06 07:48:52;;;;;;;49.00;25.80;;;;;;;;;;5057649;28;20029;-76
2023/03/06 07:51:19;;;;;;;47.50;26.70;;;;;;;;;;5059345;28;20291;-76
2023/03/06 07:53:45;;;;;;;48.00;22.23;;;;;;;;;;5040139;28;20558;-76
2023/03/06 07:56:12;;;;;;;49.63;27.00;;;;;;;;;;5039377;28;20539;-76
2023/03/06 07:58:39;;;;;;;55.13;26.50;;;;;;;;;;5041411;28;20283;-76
2023/03/06 08:01:05;;;;;;;45.70;26.13;;;;;;;;;;5058342;28;20505;-76
2023/03/06 08:03:31;;;;;;;57.70;29.03;;;;;;;;;;5048609;28;20078;-76
2023/03/06 08:06:08;;;;;;;51.53;27.17;;;;;;;;;;5042433;28;20086;-76
2023/03/06 08:08:35;;;;;;;47.67;25.03;;;;;;;;;;5043364;28;20031;-76
2023/03/06 08:11:06;;;;;;;51.30;25.10;;;;;;;;;;5040322;28;20460;-76
2023/03/06 08:13:32;;;;;;;48.87;26.83;;;;;;;;;;5059094;28;20036;-76
2023/03/06 08:15:59;;;;;;;52.50;29.17;;;;;;;;;;5039498;28;20028;-76
2023/03/06 08:18:25;;;;;;;44.30;23.33;;;;;;;;;;5041517;28;20098;-76
2023/03/06 08:21:00;;;;;;;50.80;28.17;;;;;;;;;;5045619;28;20111;-75
2023/03/06 08:23:26;;;;;;;52.80;28.77;;;;;;;;;;5048649;28;20483;-76
2023/03/06 08:25:59;;;;;;;54.00;27.87;;;;;;;;;;5039762;28;20025;-75
2023/03/06 08:28:25;;;;;;;51.47;27.53;;;;;;;;;;5059038;28;20025;-76
2023/03/06 08:30:51;;;;;;;52.17;27.57;;;;;;;;;;5057470;28;20021;-76
2023/03/06 08:33:20;;;;;;;51.70;29.27;;;;;;;;;;5042075;28;20119;-76
2023/03/06 08:35:46;;;;;;;49.53;27.03;;;;;;;;;;5055900;28;20036;-76
2023/03/06 08:38:14;;;;;;;54.57;28.43;;;;;;;;;;5055574;28;20443;-76
2023/03/06 08:40:40;;;;;;;45.73;24.53;;;;;;;;;;5043036;28;20022;-76
2023/03/06 08:43:10;;;;;;;46.67;25.73;;;;;;;;;;5046107;28;20453;-76
2023/03/06 08:45:38;;;;;;;49.97;25.47;;;;;;;;;;5059113;28;20024;-76
2023/03/06 08:48:04;;;;;;;42.43;24.40;;;;;;;;;;5058518;28;20028;-76
2023/03/06 08:50:30;;;;;;;48.00;26.30;;;;;;;;;;5074731;28;20028;-75
2023/03/06 08:52:56;;;;;;;52.27;27.47;;;;;;;;;;5057115;28;20376;-76
2023/03/06 08:55:22;;;;;;;51.90;27.53;;;;;;;;;;5074560;28;20074;-76
2023/03/06 08:57:51;;;;;;;44.30;24.20;;;;;;;;;;5072560;28;20029;-76
2023/03/06 09:00:19;;;;;;;45.83;25.17;;;;;;;;;;5068726;28;20127;-77
2023/03/06 09:02:45;;;;;;;42.53;23.27;;;;;;;;;;5053974;28;20031;-78
2023/03/06 09:05:11;;;;;;;44.03;24.27;;;;;;;;;;5067447;28;20359;-76
2023/03/06 09:07:37;;;;;;;42.40;23.47;;;;;;;;;;5049468;28;20078;-76
2023/03/06 09:10:03;;;;;;;46.90;24.33;;;;;;;;;;5057176;28;20417;-76
2023/03/06 09:12:32;;;;;;;45.43;24.77;;;;;;;;;;5048323;28;20024;-76
2023/03/06 09:14:57;;;;;;;43.07;22.67;;;;;;;;;;5056297;28;20025;-76
2023/03/06 09:17:23;;;;;;;39.53;22.50;;;;;;;;;;5056564;28;20033;-76
2023/03/06 09:19:51;;;;;;;42.83;25.00;;;;;;;;;;5058388;28;20480;-76
2023/03/06 09:22:19;;;;;;;40.03;23.80;;;;;;;;;;5072327;28;20024;-77
2023/03/06 09:24:45;;;;;;;38.27;23.50;;;;;;;;;;5060240;28;20021;-76
2023/03/06 09:27:11;;;;;;;42.23;24.47;;;;;;;;;;5059943;28;20113;-76
2023/03/06 09:29:37;;;;;;;42.20;23.03;;;;;;;;;;5078243;28;20107;-76
2023/03/06 09:32:03;;;;;;;41.17;24.07;;;;;;;;;;5059715;28;20028;-76
2023/03/06 09:34:31;;;;;;;47.73;23.57;;;;;;;;;;5060863;28;20028;-76
2023/03/06 09:36:57;;;;;;;41.77;23.07;;;;;;;;;;5051694;28;20029;-76
2023/03/06 09:39:24;;;;;;;39.03;22.17;;;;;;;;;;5059403;28;20376;-76
2023/03/06 09:41:50;;;;;;;39.00;22.73;;;;;;;;;;5058349;28;20426;-76
2023/03/06 09:44:18;;;;;;;45.50;24.30;;;;;;;;;;5060338;28;20048;-76
2023/03/06 09:47:04;;;;;;;41.33;24.03;;;;;;;;;;5060226;28;20119;-76
2023/03/06 09:49:49;;;;;;;40.57;23.90;;;;;;;;;;5073271;28;20029;-76
2023/03/06 09:52:23;;;;;;;41.60;23.77;;;;;;;;;;5058265;28;20054;-76
2023/03/06 09:55:02;;;;;;;42.53;23.73;;;;;;;;;;5060437;28;20043;-76
2023/03/06 09:57:30;;;;;;;51.00;24.13;;;;;;;;;;5049774;28;20056;-76
2023/03/06 09:59:59;;;;;;;46.20;23.20;;;;;;;;;;5046478;28;20032;-76
2023/03/06 10:02:28;;;;;;;41.87;25.17;;;;;;;;;;5059242;28;20029;-76
2023/03/06 10:04:59;;;;;;;43.13;24.90;;;;;;;;;;5077718;28;20021;-76
2023/03/06 10:07:32;;;;;;;43.50;23.63;;;;;;;;;;5051290;28;20021;-77
2023/03/06 10:10:06;;;;;;;41.10;21.33;;;;;;;;;;5046642;28;20055;-76
2023/03/06 10:12:35;;;;;;;37.10;21.93;;;;;;;;;;5040175;28;20032;-77
2023/03/06 10:15:20;;;;;;;42.17;23.23;;;;;;;;;;5060382;28;20028;-77
2023/03/06 10:17:47;;;;;;;39.93;23.23;;;;;;;;;;5055983;28;20029;-76
2023/03/06 10:20:19;;;;;;;41.50;23.77;;;;;;;;;;5060987;28;20594;-76
2023/03/06 10:22:56;;;;;;;44.03;25.17;;;;;;;;;;5059471;28;20042;-76
2023/03/06 10:25:27;;;;;;;40.60;23.07;;;;;;;;;;5046332;28;20037;-76
2023/03/06 10:27:57;;;;;;;40.83;24.03;;;;;;;;;;5058759;28;20886;-76
2023/03/06 10:30:32;;;;;;;41.27;23.80;;;;;;;;;;5042253;28;20037;-75
2023/03/06 10:32:59;;;;;;;37.33;22.27;;;;;;;;;;5045656;28;20063;-76
2023/03/06 10:35:46;;;;;;;37.53;21.50;;;;;;;;;;5059835;28;20037;-75
2023/03/06 10:38:20;;;;;;;39.60;22.33;;;;;;;;;;5058943;28;20036;-75
2023/03/06 10:41:04;;;;;;;39.47;22.47;;;;;;;;;;5040188;28;20444;-76
2023/03/06 10:43:31;;;;;;;38.03;22.60;;;;;;;;;;5060568;28;20020;-76
2023/03/06 10:45:57;;;;;;;44.80;20.40;;;;;;;;;;5060007;28;20045;-76
2023/03/06 10:48:24;;;;;;;39.80;21.33;;;;;;;;;;5059124;28;20519;-76
2023/03/06 10:50:50;;;;;;;36.13;20.47;;;;;;;;;;5049674;28;20052;-76
2023/03/06 10:53:27;;;;;;;36.23;21.03;;;;;;;;;;5043320;28;20044;-76
2023/03/06 10:55:58;;;;;;;36.90;21.07;;;;;;;;;;5048588;28;20033;-76
2023/03/06 10:58:31;;;;;;;32.33;19.67;;;;;;;;;;5052004;28;20040;-76
2023/03/06 11:01:16;;;;;;;37.50;18.53;;;;;;;;;;5059530;28;20029;-76
2023/03/06 11:03:42;;;;;;;32.83;19.50;;;;;;;;;;5059817;28;20119;-76
2023/03/06 11:06:10;;;;;;;36.47;20.93;;;;;;;;;;5058640;28;20115;-76
2023/03/06 11:08:36;;;;;;;33.73;19.87;;;;;;;;;;5040623;28;20052;-76
2023/03/06 11:11:02;;;;;;;40.00;21.20;;;;;;;;;;5059433;28;20036;-76
2023/03/06 11:13:30;;;;;;;40.50;21.67;;;;;;;;;;5039977;28;20090;-75
2023/03/06 11:15:59;;;;;;;39.97;21.33;;;;;;;;;;5041486;28;20075;-76
2023/03/06 11:18:27;;;;;;;44.20;22.97;;;;;;;;;;5060814;28;20036;-76
2023/03/06 11:20:54;;;;;;;45.03;23.50;;;;;;;;;;5056756;28;20540;-76
2023/03/06 11:23:20;;;;;;;39.87;19.47;;;;;;;;;;5059397;28;20028;-76
2023/03/06 11:26:15;;;;;;;36.83;22.77;;;;;;;;;;5058388;28;20055;-76
2023/03/06 11:29:17;;;;;;;37.33;21.37;;;;;;;;;;5044652;28;20055;-76
2023/03/06 11:31:49;;;;;;;39.17;22.40;;;;;;;;;;4945078;28;20063;-76
2023/03/06 11:34:33;;;;;;;28.90;15.90;;;;;;;;;;5043032;28;20036;-77
2023/03/06 11:36:59;;;;;;;31.50;16.60;;;;;;;;;;5043754;28;20104;-76
2023/03/06 11:39:37;;;;;;;30.13;17.97;;;;;;;;;;5044924;28;20071;-76
2023/03/06 11:42:10;;;;;;;34.10;20.10;;;;;;;;;;5061571;28;20222;-77
2023/03/06 11:44:57;;;;;;;36.53;21.27;;;;;;;;;;5051203;28;20079;-77
2023/03/06 11:47:25;;;;;;;40.33;22.03;;;;;;;;;;5043197;28;20060;-77
2023/03/06 11:49:55;;;;;;;42.60;22.97;;;;;;;;;;5056825;28;20029;-77
2023/03/06 11:52:45;;;;;;;39.73;21.37;;;;;;;;;;5043674;28;20040;-77
2023/03/06 11:55:16;;;;;;;36.23;20.20;;;;;;;;;;5049200;28;20377;-77
2023/03/06 11:57:52;;;;;;;31.43;18.00;;;;;;;;;;5045788;28;20065;-76
2023/03/06 12:00:27;;;;;;;36.37;19.73;;;;;;;;;;5061395;28;20044;-76
2023/03/06 12:02:53;;;;;;;32.37;18.57;;;;;;;;;;5047043;28;20036;-77
2023/03/06 12:05:38;;;;;;;32.80;18.27;;;;;;;;;;5043163;28;20020;-77
2023/03/06 12:08:04;;;;;;;35.97;19.13;;;;;;;;;;5057710;28;20950;-77
2023/03/06 12:10:50;;;;;;;32.07;18.30;;;;;;;;;;5059167;28;20029;-77
2023/03/06 12:13:52;;;;;;;33.87;18.37;;;;;;;;;;5058040;28;20559;-76
2023/03/06 12:16:24;;;;;;;34.93;18.33;;;;;;;;;;4950272;28;20042;-76
2023/03/06 12:19:08;;;;;;;36.10;19.83;;;;;;;;;;5030838;28;20083;-76
2023/03/06 12:21:58;;;;;;;32.67;19.73;;;;;;;;;;5040819;28;20118;-76
2023/03/06 12:24:24;;;;;;;34.20;19.33;;;;;;;;;;5028857;28;20048;-76
2023/03/06 12:26:50;;;;;;;38.07;20.37;;;;;;;;;;5058111;28;20021;-76
2023/03/06 12:29:16;;;;;;;33.80;18.37;;;;;;;;;;5041685;28;20025;-76
2023/03/06 12:31:50;;;;;;;32.10;17.73;;;;;;;;;;5046188;28;20032;-76
2023/03/06 12:34:15;;;;;;;25.33;14.77;;;;;;;;;;5057328;28;20057;-75
2023/03/06 12:36:47;;;;;;;35.03;17.20;;;;;;;;;;5041354;28;20121;-76
2023/03/06 12:39:20;;;;;;;27.60;16.05;;;;;;;;;;5056611;28;20044;-76
2023/03/06 12:42:04;;;;;;;32.47;17.83;;;;;;;;;;5057097;28;20039;-76
2023/03/06 12:44:36;;;;;;;28.07;16.97;;;;;;;;;;5039432;28;20055;-74
2023/03/06 12:47:04;;;;;;;28.65;15.50;;;;;;;;;;5057774;28;20028;-75
2023/03/06 12:49:37;;;;;;;28.90;16.27;;;;;;;;;;5039995;28;20036;-76
2023/03/06 12:52:03;;;;;;;;;;;;;;;;;;5057777;28;20016;-76
2023/03/06 12:54:30;;;;;;;23.27;13.13;;;;;;;;;;5057832;28;20446;-76
2023/03/06 12:56:57;;;;;;;23.27;13.37;;;;;;;;;;5059041;28;20025;-76
2023/03/06 12:59:43;;;;;;;23.53;13.43;;;;;;;;;;5049181;28;20477;-76
2023/03/06 13:02:27;;;;;;;28.77;12.97;;;;;;;;;;5056193;28;20456;-76
2023/03/06 13:05:05;;;;;;;22.87;13.27;;;;;;;;;;5057853;28;20718;-76
2023/03/06 13:07:51;;;;;;;24.93;12.90;;;;;;;;;;5058751;28;20025;-76
2023/03/06 13:10:26;;;;;;;21.50;12.53;;;;;;;;;;5057982;28;20882;-76
2023/03/06 13:12:54;;;;;;;21.80;12.87;;;;;;;;;;5053506;28;20040;-76
2023/03/06 13:15:33;;;;;;;19.77;11.77;;;;;;;;;;5056112;28;20140;-76
2023/03/06 13:17:59;;;;;;;24.90;12.23;;;;;;;;;;5057383;28;20029;-76
2023/03/06 13:20:25;;;;;;;22.83;12.80;;;;;;;;;;5059300;28;20044;-76
2023/03/06 13:22:54;;;;;;;19.90;11.13;;;;;;;;;;5041976;28;20028;-76
2023/03/06 13:25:20;;;;;;;21.70;12.33;;;;;;;;;;5041337;28;20034;-76
2023/03/06 13:27:46;;;;;;;23.37;12.93;;;;;;;;;;5040002;28;20024;-76
2023/03/06 13:30:30;;;;;;;23.10;11.90;;;;;;;;;;5055388;28;20044;-76
2023/03/06 13:32:56;;;;;;;23.63;13.83;;;;;;;;;;5040321;28;20483;-76
2023/03/06 13:35:25;;;;;;;29.10;16.07;;;;;;;;;;5040359;28;20567;-75
2023/03/06 13:37:52;;;;;;;32.23;15.33;;;;;;;;;;5041942;28;20032;-77
2023/03/06 13:40:31;;;;;;;34.57;18.20;;;;;;;;;;5040275;28;20029;-75
2023/03/06 13:43:07;;;;;;;32.80;18.23;;;;;;;;;;5043872;28;20013;-76
2023/03/06 13:45:37;;;;;;;34.30;18.67;;;;;;;;;;5056482;28;20036;-76
2023/03/06 13:48:03;;;;;;;31.83;17.77;;;;;;;;;;5043324;28;20028;-75
2023/03/06 13:50:35;;;;;;;38.70;20.83;;;;;;;;;;5046997;28;20024;-76
2023/03/06 13:53:19;;;;;;;37.20;20.90;;;;;;;;;;5056431;28;20468;-76
2023/03/06 13:55:51;;;;;;;35.47;19.67;;;;;;;;;;5057864;28;20067;-76
2023/03/06 13:58:23;;;;;;;36.20;20.73;;;;;;;;;;5057249;28;20029;-76
2023/03/06 14:00:49;;;;;;;41.00;20.70;;;;;;;;;;5040761;28;20125;-76
2023/03/06 14:03:34;;;;;;;34.40;19.40;;;;;;;;;;5057126;28;20440;-75
2023/03/06 14:06:00;;;;;;;35.20;18.93;;;;;;;;;;5049191;28;20024;-76
2023/03/06 14:08:31;;;;;;;30.87;17.67;;;;;;;;;;5061423;28;20049;-76
2023/03/06 14:11:00;;;;;;;32.77;19.47;;;;;;;;;;5049864;28;20024;-75
2023/03/06 14:13:34;;;;;;;33.43;20.17;;;;;;;;;;5043003;28;20171;-76
2023/03/06 14:16:00;;;;;;;34.30;20.83;;;;;;;;;;5052370;28;20120;-75
2023/03/06 14:18:31;;;;;;;37.47;20.07;;;;;;;;;;5046476;28;20175;-76
2023/03/06 14:20:58;;;;;;;38.47;21.57;;;;;;;;;;5040717;28;20878;-76
2023/03/06 14:23:34;;;;;;;35.80;20.57;;;;;;;;;;5061636;28;20082;-77
2023/03/06 14:26:05;;;;;;;41.40;22.57;;;;;;;;;;5059389;28;20036;-76
2023/03/06 14:28:34;;;;;;;35.73;21.50;;;;;;;;;;5059210;28;20134;-76